Savoonga, AK

2:39 AM AKDT on July 24, 2014 (GMT -0800)
Nome (PAOM) Elev 36 ft | 64.51 °N, 165.45 °W | Change Station

Current weather conditions updated 46 minutes ago

Mostly Cloudy
Mostly Cloudy
49 °F
Feels Like 49 °F
N
9
Wind Variable Wind from NNW

Today is forecast to be Cooler than yesterday.

Today
High -- | Low -- °F
--% Chance of Precip.
Yesterday
High -- | Low -- °F
Precip. -- in
6:11 AM 0:36 AM
Waning Crescent, 6% visible
Pressure 29.76 in
Visibility 10.0 miles
Clouds Mostly Cloudy 2400 ft
Mostly Cloudy 15000 ft
Mostly Cloudy 21000 ft
Dew Point 42 °F
Humidity 77%
Rainfall 0.00 in
Snow Depth Not available.
UV 0 out of 12
Pollen Not available.
Air Quality Not available.
Flu Activity Not available.
METAR PAOM 240953Z 34008KT 10SM BKN024 BKN150 BKN210 09/06 A2976 RMK AO2 SLP077 T00940056

More Conditions Fewer Conditions

Pressure 29.76 in
Visibility 10.0 miles
Clouds Mostly Cloudy 2400 ft
Mostly Cloudy 15000 ft
Mostly Cloudy 21000 ft
Dew Point 42 °F
Humidity 77%
Rainfall 0.00 in
Snow Depth Not available.
UV 0 out of 12
Pollen Not available.
Air Quality Not available.
Flu Activity Not available.
METAR PAOM 240953Z 34008KT 10SM BKN024 BKN150 BKN210 09/06 A2976 RMK AO2 SLP077 T00940056

More Conditions Fewer Conditions

10-Day Weather Forecast

Almanac

Astronomy

Jul. 24, 2014 Rise Set
Actual Time 6:11 AM AKDT 12:36 AM AKDT
Civil Twilight 4:28 AM AKDT 2:14 AM AKDT
Nautical Twilight Sun does not rise Sun does not rise
Astronomical Twilight Sun does not rise Sun does not rise
Moon 4:44 AM AKDT 10:42 PM AKDT
Length of Visible Light 21h 46m
Length of Day
18h 25m
Tomorrow will be 5m 48s shorter.
Waning Crescent, 6% of the Moon is Illuminated
Today
Waning Crescent
Jul 26
New
Aug 3
First Quarter
Aug 10
Full
Aug 17
Last Quarter

Today's Extremes

State Highs State Lows

Community

WunderPhotos

Upload Photos

1,736,966 photos uploaded!

Nearby

Snow Depth

Station Depth Elevation
Rocky Point 2 in 500 ft
Pargon Creek 0 in 300 ft
Gobblers Knob 0 in 2030 ft
Coldfoot 1 in 1040 ft
Susitna Valley High 2 in 375 ft

Earthquake Activity

City Distance Mag. Time & Date
No recent earthquake activity has been reported nearby.
Minimum magnitude displayed is 2.5.

Coastal Water Temperatures

Place Temperature
No Stations Reporting

Nearby Weather Stations

There are no personal weather stations in this area.